createdAt,value
2023-04-13T00:01:32.806Z,99267.34
2023-04-13T00:04:03.364Z,99259.53
2023-04-13T00:06:30.461Z,99261.09
2023-04-13T00:08:58.651Z,99254.47
2023-04-13T00:11:27.768Z,99254.47
2023-04-13T00:13:55.253Z,99255.28
2023-04-13T00:16:22.204Z,99259.56
2023-04-13T00:18:50.202Z,99247.09
2023-04-13T00:21:17.112Z,99253.28
2023-04-13T00:23:44.636Z,99252.56
2023-04-13T00:26:11.097Z,99262.81
2023-04-13T00:28:37.928Z,99263.94
2023-04-13T00:31:04.746Z,99264.66
2023-04-13T00:33:31.509Z,99267.41
2023-04-13T00:35:58.005Z,99269.41
2023-04-13T00:38:27.160Z,99271.75
2023-04-13T00:40:54.615Z,99265.19
2023-04-13T00:43:21.520Z,99267.81
2023-04-13T00:45:48.646Z,99269.41
2023-04-13T00:48:15.881Z,99274.97
2023-04-13T00:50:42.718Z,99288.00
2023-04-13T00:53:13.150Z,99298.16
2023-04-13T00:55:42.427Z,99294.94
2023-04-13T00:58:09.173Z,99289.47
2023-04-13T01:00:39.038Z,99287.66
2023-04-13T01:03:05.986Z,99307.94
2023-04-13T01:05:50.517Z,99317.44
2023-04-13T01:08:20.878Z,99333.19
2023-04-13T01:11:05.924Z,99341.09
2023-04-13T01:13:48.971Z,99350.91
2023-04-13T01:16:15.893Z,99360.94
2023-04-13T01:18:45.159Z,99370.41
2023-04-13T01:21:14.770Z,99382.13
2023-04-13T01:24:22.415Z,99383.53
2023-04-13T01:27:06.980Z,99397.53
2023-04-13T01:29:36.237Z,99400.63
2023-04-13T01:32:03.114Z,99408.72
2023-04-13T01:34:30.037Z,99412.91
2023-04-13T01:36:57.109Z,99414.41
2023-04-13T01:39:25.581Z,99414.72
2023-04-13T01:41:52.037Z,99414.22
2023-04-13T01:44:18.581Z,99421.66
2023-04-13T01:46:49.467Z,99430.28
2023-04-13T01:49:19.768Z,99442.03
2023-04-13T01:51:48.153Z,99454.69
2023-04-13T01:54:25.636Z,99456.53
2023-04-13T01:56:53.012Z,99433.19
2023-04-13T01:59:20.118Z,99439.63
2023-04-13T02:04:13.867Z,99449.56
2023-04-13T02:06:42.235Z,99453.28
2023-04-13T02:09:08.697Z,99446.47
2023-04-13T02:11:36.305Z,99457.41
2023-04-13T02:14:03.958Z,99456.16
2023-04-13T02:16:30.467Z,99459.56
2023-04-13T02:18:58.539Z,99456.19
2023-04-13T02:21:25.717Z,99451.28
2023-04-13T02:23:55.007Z,99454.72
2023-04-13T02:26:21.499Z,99463.91
2023-04-13T02:28:49.384Z,99464.28
2023-04-13T02:31:16.753Z,99475.13
2023-04-13T02:33:44.713Z,99479.47
2023-04-13T02:36:11.635Z,99488.47
2023-04-13T02:38:38.495Z,99486.63
2023-04-13T02:41:06.314Z,99483.03
2023-04-13T02:43:33.250Z,99479.63
2023-04-13T02:45:59.886Z,99483.75
2023-04-13T02:48:26.925Z,99487.72
2023-04-13T02:50:54.300Z,99495.38
2023-04-13T02:53:24.594Z,99500.72
2023-04-13T02:55:52.664Z,99508.38
2023-04-13T02:58:20.256Z,99516.78
2023-04-13T03:00:48.537Z,99502.22
2023-04-13T03:03:16.874Z,99490.81
2023-04-13T03:05:43.528Z,99508.63
2023-04-13T03:08:10.225Z,99504.16
2023-04-13T03:10:37.474Z,99505.75
2023-04-13T03:13:03.849Z,99499.31
2023-04-13T03:15:30.815Z,99504.88
2023-04-13T03:17:59.896Z,99497.16
2023-04-13T03:20:28.954Z,99494.13
2023-04-13T03:22:56.225Z,99497.16
2023-04-13T03:25:22.673Z,99501.47
2023-04-13T03:27:49.081Z,99501.78
2023-04-13T03:30:15.542Z,99512.06
2023-04-13T03:32:41.953Z,99505.84
2023-04-13T03:35:08.753Z,99517.00
2023-04-13T03:37:40.458Z,99521.38
2023-04-13T03:40:10.466Z,99518.56
2023-04-13T03:42:37.421Z,99518.47
2023-04-13T03:45:05.003Z,99522.59
2023-04-13T03:47:31.484Z,99525.06
2023-04-13T03:49:58.025Z,99521.59
2023-04-13T03:52:24.525Z,99522.00
2023-04-13T03:54:51.202Z,99526.59
2023-04-13T03:57:17.690Z,99536.19
2023-04-13T03:59:44.140Z,99535.56
2023-04-13T04:02:10.915Z,99534.91
2023-04-13T04:04:37.455Z,99546.16
2023-04-13T04:07:03.943Z,99545.97
2023-04-13T04:09:30.352Z,99545.41
2023-04-13T04:11:56.753Z,99540.78
2023-04-13T04:14:23.673Z,99535.03
2023-04-13T04:16:50.381Z,99529.41
2023-04-13T04:19:17.026Z,99528.72
2023-04-13T04:21:46.845Z,99528.53
2023-04-13T04:24:31.374Z,99526.31
2023-04-13T04:27:02.542Z,99523.13
2023-04-13T04:29:34.986Z,99522.31
2023-04-13T04:32:03.086Z,99527.44
2023-04-13T04:34:30.145Z,99536.47
2023-04-13T04:37:00.238Z,99529.47
2023-04-13T04:39:32.957Z,99528.53
2023-04-13T04:42:05.235Z,99531.72
2023-04-13T04:44:31.756Z,99528.31
2023-04-13T04:47:02.756Z,99534.84
2023-04-13T04:49:29.465Z,99540.28
2023-04-13T04:51:57.409Z,99552.34
2023-04-13T04:54:24.193Z,99553.50
2023-04-13T04:56:51.589Z,99550.69
2023-04-13T04:59:19.497Z,99547.25
2023-04-13T05:01:46.096Z,99546.94
2023-04-13T05:04:12.642Z,99543.88
2023-04-13T05:06:41.395Z,99539.78
2023-04-13T05:09:08.923Z,99542.28
2023-04-13T05:11:35.812Z,99543.97
2023-04-13T05:14:02.384Z,99542.25
2023-04-13T05:16:30.519Z,99537.13
2023-04-13T05:18:57.416Z,99541.53
2023-04-13T05:21:24.161Z,99543.19
2023-04-13T05:23:50.933Z,99551.00
2023-04-13T05:26:17.481Z,99551.44
2023-04-13T05:28:43.887Z,99557.78
2023-04-13T05:31:11.263Z,99554.66
2023-04-13T05:33:38.112Z,99568.59
2023-04-13T05:36:05.298Z,99573.56
2023-04-13T05:38:31.854Z,99571.31
2023-04-13T05:40:58.668Z,99584.56
2023-04-13T05:43:25.146Z,99577.38
2023-04-13T05:45:52.131Z,99578.13
2023-04-13T05:48:18.897Z,99585.22
2023-04-13T05:50:45.393Z,99587.75
2023-04-13T05:53:11.930Z,99579.94
2023-04-13T05:55:44.791Z,99592.91
2023-04-13T05:58:12.844Z,99601.13
2023-04-13T06:00:39.879Z,99598.50
2023-04-13T06:03:07.371Z,99615.03
2023-04-13T06:05:36.571Z,99613.00
2023-04-13T06:08:03.314Z,99606.63
2023-04-13T06:10:29.939Z,99613.47
2023-04-13T06:12:56.461Z,99619.19
2023-04-13T06:15:23.530Z,99632.09
2023-04-13T06:17:53.334Z,99633.25
2023-04-13T06:20:21.268Z,99633.06
2023-04-13T06:22:47.991Z,99631.56
2023-04-13T06:25:14.899Z,99632.63
2023-04-13T06:27:43.387Z,99634.00
2023-04-13T06:30:10.756Z,99640.94
2023-04-13T06:32:37.490Z,99648.75
2023-04-13T06:35:05.909Z,99650.31
2023-04-13T06:37:34.980Z,99652.31
2023-04-13T06:40:12.339Z,99666.13
2023-04-13T06:42:40.325Z,99662.50
2023-04-13T06:45:08.816Z,99657.13
2023-04-13T06:47:36.217Z,99660.78
2023-04-13T06:50:07.073Z,99662.00
2023-04-13T06:52:34.006Z,99653.41
2023-04-13T06:55:00.754Z,99664.22
2023-04-13T06:57:27.843Z,99675.28
2023-04-13T06:59:54.506Z,99678.56
2023-04-13T07:02:21.496Z,99681.78
2023-04-13T07:04:48.474Z,99694.97
2023-04-13T07:07:15.050Z,99690.00
2023-04-13T07:09:41.787Z,99693.41
2023-04-13T07:12:08.312Z,99694.78
2023-04-13T07:14:35.939Z,99695.81
2023-04-13T07:17:02.965Z,99699.72
2023-04-13T07:19:30.877Z,99704.59
2023-04-13T07:21:59.864Z,99691.25
2023-04-13T07:24:29.837Z,99697.63
2023-04-13T07:26:57.539Z,99694.47
2023-04-13T07:29:24.826Z,99691.44
2023-04-13T07:31:51.988Z,99690.13
2023-04-13T07:34:18.900Z,99692.59
2023-04-13T07:36:45.856Z,99704.50
2023-04-13T07:39:12.285Z,99703.06
2023-04-13T07:41:38.778Z,99706.72
2023-04-13T07:44:05.317Z,99711.22
2023-04-13T07:46:33.481Z,99705.09
2023-04-13T07:49:00.751Z,99713.09
2023-04-13T07:51:27.602Z,99709.91
2023-04-13T07:53:54.629Z,99714.63
2023-04-13T07:56:21.663Z,99716.91
2023-04-13T07:58:48.121Z,99729.69
2023-04-13T08:01:14.599Z,99730.06
2023-04-13T08:03:41.246Z,99730.38
2023-04-13T08:06:08.714Z,99740.53
2023-04-13T08:08:35.163Z,99749.50
2023-04-13T08:11:01.986Z,99748.06
2023-04-13T08:13:29.672Z,99746.22
2023-04-13T08:15:57.505Z,99745.06
2023-04-13T08:18:24.470Z,99759.88
2023-04-13T08:20:50.898Z,99761.22
2023-04-13T08:23:17.340Z,99761.53
2023-04-13T08:25:44.595Z,99760.63
2023-04-13T08:28:10.981Z,99766.75
2023-04-13T08:30:37.856Z,99783.53
2023-04-13T08:33:04.549Z,99787.75
2023-04-13T08:35:31.337Z,99781.94
2023-04-13T08:37:58.216Z,99795.44
2023-04-13T08:40:24.960Z,99786.94
2023-04-13T08:42:53.839Z,99795.19
2023-04-13T08:45:20.974Z,99801.94
2023-04-13T08:47:49.330Z,99814.63
2023-04-13T08:50:16.840Z,99806.84
2023-04-13T08:52:43.264Z,99814.50
2023-04-13T08:55:09.665Z,99820.19
2023-04-13T08:57:37.198Z,99826.97
2023-04-13T09:00:09.211Z,99831.75
2023-04-13T09:02:38.420Z,99826.66
2023-04-13T09:05:15.726Z,99831.94
2023-04-13T09:07:47.899Z,99828.31
2023-04-13T09:10:16.392Z,99834.66
2023-04-13T09:12:42.803Z,99832.75
2023-04-13T09:15:13.511Z,99835.50
2023-04-13T09:17:40.100Z,99843.66
2023-04-13T09:20:24.248Z,99840.75
2023-04-13T09:22:52.366Z,99843.75
2023-04-13T09:25:24.568Z,99845.19
2023-04-13T09:27:52.170Z,99854.56
2023-04-13T09:30:23.102Z,99855.91
2023-04-13T09:33:04.643Z,99857.94
2023-04-13T09:35:32.053Z,99863.91
2023-04-13T09:37:59.805Z,99867.13
2023-04-13T09:40:30.125Z,99866.00
2023-04-13T09:43:04.648Z,99855.69
2023-04-13T09:45:41.888Z,99868.03
2023-04-13T09:48:20.582Z,99867.66
2023-04-13T09:51:02.070Z,99867.28
2023-04-13T09:53:39.699Z,99873.69
2023-04-13T09:56:06.326Z,99876.91
2023-04-13T09:58:32.739Z,99882.47
2023-04-13T10:01:00.279Z,99884.19
2023-04-13T10:03:27.779Z,99884.63
2023-04-13T10:06:00.132Z,99886.59
2023-04-13T10:11:00.149Z,99898.19
2023-04-13T10:13:36.710Z,99889.44
2023-04-13T10:16:29.101Z,99881.13
2023-04-13T10:19:07.783Z,99893.88
2023-04-13T10:21:40.638Z,99897.09
2023-04-13T10:24:12.211Z,99898.75
2023-04-13T10:26:40.787Z,99894.09
2023-04-13T10:29:09.086Z,99906.34
2023-04-13T10:31:48.002Z,99907.50
2023-04-13T10:34:32.465Z,99907.97
2023-04-13T10:37:03.679Z,99913.34
2023-04-13T10:39:32.313Z,99914.50
2023-04-13T10:42:09.251Z,99907.78
2023-04-13T10:44:45.315Z,99914.50
2023-04-13T10:47:16.958Z,99913.66
2023-04-13T10:49:44.759Z,99914.50
2023-04-13T10:52:11.591Z,99914.25
2023-04-13T10:54:39.604Z,99915.44
2023-04-13T10:57:08.867Z,99912.28
2023-04-13T10:59:57.914Z,99918.50
2023-04-13T11:02:31.928Z,99920.16
2023-04-13T11:04:59.669Z,99921.00
2023-04-13T11:07:26.678Z,99914.63
2023-04-13T11:12:29.060Z,99932.97
2023-04-13T11:14:55.661Z,99942.06
2023-04-13T11:17:22.381Z,99944.72
2023-04-13T11:19:53.853Z,99948.22
2023-04-13T11:22:27.645Z,99948.63
2023-04-13T11:25:06.323Z,99953.81
2023-04-13T11:27:32.747Z,99949.75
2023-04-13T11:30:07.330Z,99956.38
2023-04-13T11:32:34.317Z,99968.69
2023-04-13T11:35:08.186Z,99961.66
2023-04-13T11:37:43.034Z,99959.69
2023-04-13T11:40:14.696Z,99969.19
2023-04-13T11:42:42.791Z,99969.66
2023-04-13T11:45:10.437Z,99963.53
2023-04-13T11:47:37.375Z,99975.16
2023-04-13T11:50:05.609Z,99972.78
2023-04-13T11:52:33.612Z,99975.53
2023-04-13T11:55:14.974Z,99972.34
2023-04-13T11:57:49.368Z,99972.78
2023-04-13T12:00:24.434Z,99973.03
2023-04-13T12:03:02.025Z,99975.06
2023-04-13T12:05:32.440Z,99968.91
2023-04-13T12:08:00.697Z,99974.16
2023-04-13T12:10:39.346Z,99983.19
2023-04-13T12:15:58.149Z,99985.75
2023-04-13T12:18:37.076Z,99993.72
2023-04-13T12:21:05.717Z,99994.16
2023-04-13T12:23:32.773Z,99997.34
2023-04-13T12:26:31.877Z,99995.06
2023-04-13T12:28:59.570Z,100003.00
2023-04-13T12:31:33.017Z,99994.38
2023-04-13T12:33:59.607Z,99990.06
2023-04-13T12:36:28.514Z,100002.25
2023-04-13T12:38:54.911Z,99996.03
2023-04-13T12:41:22.728Z,100005.47
2023-04-13T12:43:49.128Z,99996.81
2023-04-13T12:46:15.712Z,100001.97
2023-04-13T12:48:42.175Z,100002.38
2023-04-13T12:51:08.940Z,100007.50
2023-04-13T12:53:36.040Z,100007.19
2023-04-13T12:56:02.501Z,100007.91
2023-04-13T12:58:28.916Z,100004.81
2023-04-13T13:00:55.689Z,100010.75
2023-04-13T13:03:23.506Z,100013.41
2023-04-13T13:05:50.039Z,100009.97
2023-04-13T13:08:16.421Z,100013.34
2023-04-13T13:10:43.110Z,100019.75
2023-04-13T13:13:09.761Z,100006.72
2023-04-13T13:15:36.733Z,100018.97
2023-04-13T13:18:04.459Z,100020.16
2023-04-13T13:20:31.132Z,100016.25
2023-04-13T13:22:57.858Z,100017.84
2023-04-13T13:25:24.594Z,100023.81
2023-04-13T13:30:20.279Z,100026.09
2023-04-13T13:32:46.886Z,100025.44
2023-04-13T13:35:14.739Z,100022.22
2023-04-13T13:37:41.279Z,100033.19
2023-04-13T13:40:13.079Z,100038.75
2023-04-13T13:42:50.704Z,100042.72
2023-04-13T13:45:18.652Z,100041.97
2023-04-13T13:47:48.650Z,100039.19
2023-04-13T13:50:15.179Z,100034.94
2023-04-13T13:52:48.747Z,100040.88
2023-04-13T13:55:26.128Z,100039.75
2023-04-13T13:57:52.535Z,100024.78
2023-04-13T14:00:19.730Z,100020.00
2023-04-13T14:02:47.177Z,100028.69
2023-04-13T14:05:13.748Z,100031.72
2023-04-13T14:07:42.011Z,100026.94
2023-04-13T14:10:12.781Z,100039.63
2023-04-13T14:12:44.751Z,100042.78
2023-04-13T14:15:12.317Z,100037.72
2023-04-13T14:17:39.612Z,100040.44
2023-04-13T14:20:12.830Z,100047.13
2023-04-13T14:22:41.032Z,100055.34
2023-04-13T14:25:11.235Z,100057.75
2023-04-13T14:27:38.674Z,100060.47
2023-04-13T14:30:06.105Z,100049.47
2023-04-13T14:32:32.773Z,100055.75
2023-04-13T14:35:00.537Z,100055.31
2023-04-13T14:37:27.996Z,100053.00
2023-04-13T14:39:55.379Z,100062.81
2023-04-13T14:42:24.396Z,100065.56
2023-04-13T14:44:51.759Z,100066.75
2023-04-13T14:47:19.505Z,100064.00
2023-04-13T14:49:47.216Z,100068.66
2023-04-13T14:52:14.254Z,100066.25
2023-04-13T14:54:40.652Z,100074.19
2023-04-13T14:57:07.036Z,100074.13
2023-04-13T14:59:33.687Z,100073.75
2023-04-13T15:02:00.877Z,100080.84
2023-04-13T15:04:28.153Z,100076.09
2023-04-13T15:06:54.729Z,100081.22
2023-04-13T15:09:21.871Z,100090.97
2023-04-13T15:11:49.163Z,100089.06
2023-04-13T15:14:15.563Z,100089.03
2023-04-13T15:16:41.942Z,100083.63
2023-04-13T15:19:08.423Z,100089.81
2023-04-13T15:21:35.641Z,100093.47
2023-04-13T15:24:02.117Z,100094.19
2023-04-13T15:26:29.784Z,100095.38
2023-04-13T15:28:56.083Z,100098.06
2023-04-13T15:31:22.657Z,100106.34
2023-04-13T15:33:49.158Z,100101.63
2023-04-13T15:36:16.424Z,100095.69
2023-04-13T15:38:43.141Z,100106.75
2023-04-13T15:41:11.338Z,100108.69
2023-04-13T15:43:38.199Z,100107.88
2023-04-13T15:46:04.957Z,100118.47
2023-04-13T15:48:31.956Z,100120.78
2023-04-13T15:51:01.683Z,100124.69
2023-04-13T15:53:28.339Z,100125.06
2023-04-13T15:55:54.999Z,100135.66
2023-04-13T15:58:21.573Z,100140.69
2023-04-13T16:00:57.390Z,100144.59
2023-04-13T16:03:24.214Z,100144.19
2023-04-13T16:05:50.988Z,100143.78
2023-04-13T16:08:19.185Z,100137.13
2023-04-13T16:10:45.727Z,100130.00
2023-04-13T16:13:18.842Z,100138.22
2023-04-13T16:15:58.773Z,100138.56
2023-04-13T16:18:30.067Z,100142.09
2023-04-13T16:21:03.439Z,100150.72
2023-04-13T16:23:33.514Z,100153.44
2023-04-13T16:26:03.014Z,100145.00
2023-04-13T16:28:29.618Z,100150.19
2023-04-13T16:30:56.326Z,100154.47
2023-04-13T16:33:23.271Z,100161.50
2023-04-13T16:35:49.623Z,100156.22
2023-04-13T16:38:15.984Z,100155.81
2023-04-13T16:40:42.420Z,100154.56
2023-04-13T16:43:09.465Z,100164.31
2023-04-13T16:45:36.850Z,100153.22
2023-04-13T16:48:06.215Z,100158.66
2023-04-13T16:50:33.116Z,100156.28
2023-04-13T16:52:59.645Z,100177.06
2023-04-13T16:55:28.170Z,100176.59
2023-04-13T16:57:54.911Z,100174.97
2023-04-13T17:00:21.730Z,100169.41
2023-04-13T17:02:48.132Z,100184.75
2023-04-13T17:05:14.759Z,100178.38
2023-04-13T17:07:43.293Z,100183.19
2023-04-13T17:10:12.328Z,100181.94
2023-04-13T17:12:39.026Z,100182.72
2023-04-13T17:15:06.059Z,100181.13
2023-04-13T17:17:32.791Z,100189.78
2023-04-13T17:20:02.512Z,100181.00
2023-04-13T17:22:31.776Z,100183.38
2023-04-13T17:24:58.934Z,100188.16
2023-04-13T17:27:25.669Z,100185.56
2023-04-13T17:29:52.025Z,100184.69
2023-04-13T17:32:22.181Z,100183.13
2023-04-13T17:34:50.581Z,100187.72
2023-04-13T17:37:17.970Z,100180.50
2023-04-13T17:39:59.944Z,100184.66
2023-04-13T17:42:26.850Z,100188.94
2023-04-13T17:44:53.184Z,100195.28
2023-04-13T17:47:19.856Z,100188.09
2023-04-13T17:49:46.331Z,100198.97
2023-04-13T17:52:12.696Z,100195.72
2023-04-13T17:54:40.415Z,100199.13
2023-04-13T17:57:07.683Z,100193.94
2023-04-13T17:59:34.641Z,100192.09
2023-04-13T18:02:07.872Z,100185.31
2023-04-13T18:04:34.618Z,100190.53
2023-04-13T18:07:01.568Z,100192.41
2023-04-13T18:09:28.127Z,100189.16
2023-04-13T18:11:54.790Z,100186.50
2023-04-13T18:14:24.509Z,100184.13
2023-04-13T18:16:50.974Z,100189.44
2023-04-13T18:19:17.508Z,100189.00
2023-04-13T18:21:43.874Z,100178.97
2023-04-13T18:24:10.732Z,100178.13
2023-04-13T18:26:40.874Z,100174.69
2023-04-13T18:29:08.100Z,100184.03
2023-04-13T18:31:34.655Z,100185.00
2023-04-13T18:34:01.687Z,100187.84
2023-04-13T18:36:28.564Z,100187.66
2023-04-13T18:38:54.993Z,100188.97
2023-04-13T18:41:22.036Z,100201.63
2023-04-13T18:43:48.399Z,100200.66
2023-04-13T18:46:14.845Z,100200.22
2023-04-13T18:48:41.232Z,100196.25
2023-04-13T18:51:09.770Z,100194.94
2023-04-13T18:53:36.368Z,100200.75
2023-04-13T18:56:02.737Z,100209.19
2023-04-13T18:58:29.125Z,100221.81
2023-04-13T19:00:55.578Z,100215.94
2023-04-13T19:03:22.490Z,100210.25
2023-04-13T19:05:49.044Z,100221.44
2023-04-13T19:08:15.554Z,100218.25
2023-04-13T19:10:43.289Z,100229.88
2023-04-13T19:13:09.709Z,100233.75
2023-04-13T19:15:36.397Z,100240.56
2023-04-13T19:18:04.305Z,100235.44
2023-04-13T19:20:31.022Z,100242.72
2023-04-13T19:22:57.432Z,100236.03
2023-04-13T19:25:23.974Z,100238.84
2023-04-13T19:27:50.371Z,100254.63
2023-04-13T19:30:18.195Z,100267.13
2023-04-13T19:32:46.583Z,100252.72
2023-04-13T19:35:13.651Z,100254.41
2023-04-13T19:37:40.441Z,100258.59
2023-04-13T19:40:13.577Z,100263.50
2023-04-13T19:42:41.561Z,100260.06
2023-04-13T19:45:09.495Z,100267.44
2023-04-13T19:47:39.805Z,100274.22
2023-04-13T19:50:08.835Z,100279.69
2023-04-13T19:52:35.462Z,100280.44
2023-04-13T19:55:01.998Z,100287.69
2023-04-13T19:57:28.852Z,100293.91
2023-04-13T19:59:55.285Z,100299.22
2023-04-13T20:02:21.902Z,100302.50
2023-04-13T20:04:52.021Z,100300.44
2023-04-13T20:07:18.415Z,100307.34
2023-04-13T20:09:45.307Z,100311.75
2023-04-13T20:12:12.295Z,100309.56
2023-04-13T20:14:41.663Z,100310.69
2023-04-13T20:17:08.884Z,100309.63
2023-04-13T20:19:36.334Z,100313.94
2023-04-13T20:22:04.186Z,100311.69
2023-04-13T20:24:31.275Z,100308.75
2023-04-13T20:26:58.042Z,100302.50
2023-04-13T20:29:26.742Z,100302.16
2023-04-13T20:31:53.688Z,100302.75
2023-04-13T20:34:20.532Z,100303.66
2023-04-13T20:36:47.456Z,100297.72
2023-04-13T20:39:14.016Z,100300.38
2023-04-13T20:41:40.384Z,100306.75
2023-04-13T20:44:09.813Z,100309.81
2023-04-13T20:46:37.569Z,100307.47
2023-04-13T20:49:05.128Z,100301.00
2023-04-13T20:51:33.503Z,100297.81
2023-04-13T20:54:02.993Z,100294.75
2023-04-13T20:56:29.939Z,100293.94
2023-04-13T20:58:57.742Z,100292.91
2023-04-13T21:01:28.023Z,100282.81
2023-04-13T21:03:54.538Z,100274.63
2023-04-13T21:06:22.594Z,100274.19
2023-04-13T21:08:49.221Z,100271.00
2023-04-13T21:11:15.630Z,100280.97
2023-04-13T21:13:42.182Z,100274.19
2023-04-13T21:16:09.139Z,100276.09
2023-04-13T21:18:36.605Z,100271.13
2023-04-13T21:21:05.284Z,100270.41
2023-04-13T21:23:31.663Z,100266.88
2023-04-13T21:25:58.172Z,100269.72
2023-04-13T21:28:24.502Z,100271.66
2023-04-13T21:30:50.867Z,100275.19
2023-04-13T21:33:17.295Z,100269.63
2023-04-13T21:35:43.665Z,100273.63
2023-04-13T21:38:10.354Z,100276.22
2023-04-13T21:40:36.694Z,100274.41
2023-04-13T21:43:03.297Z,100278.25
2023-04-13T21:45:29.988Z,100275.03
2023-04-13T21:47:56.427Z,100269.13
2023-04-13T21:50:23.028Z,100271.03
2023-04-13T21:52:49.463Z,100263.81
2023-04-13T21:55:19.085Z,100269.59
2023-04-13T21:57:46.266Z,100265.75
2023-04-13T22:00:14.980Z,100268.09
2023-04-13T22:02:42.094Z,100264.56
2023-04-13T22:05:11.126Z,100257.81
2023-04-13T22:07:42.808Z,100258.47
2023-04-13T22:10:10.581Z,100265.50
2023-04-13T22:12:37.016Z,100273.81
2023-04-13T22:15:03.732Z,100265.63
2023-04-13T22:17:30.197Z,100268.03
2023-04-13T22:19:56.616Z,100273.47
2023-04-13T22:22:23.109Z,100274.41
2023-04-13T22:24:52.160Z,100278.69
2023-04-13T22:27:18.723Z,100281.09
2023-04-13T22:29:45.415Z,100278.69
2023-04-13T22:32:11.734Z,100289.59
2023-04-13T22:34:38.035Z,100287.44
2023-04-13T22:37:04.993Z,100283.91
2023-04-13T22:39:31.602Z,100291.88
2023-04-13T22:41:58.929Z,100302.66
2023-04-13T22:44:25.346Z,100303.22
2023-04-13T22:46:53.802Z,100302.66
2023-04-13T22:49:20.169Z,100304.53
2023-04-13T22:51:46.581Z,100309.44
2023-04-13T22:54:12.972Z,100312.50
2023-04-13T22:56:39.303Z,100314.13
2023-04-13T22:59:05.689Z,100309.56
2023-04-13T23:01:32.093Z,100313.41
2023-04-13T23:03:58.666Z,100309.91
2023-04-13T23:06:25.327Z,100314.75
2023-04-13T23:08:51.688Z,100307.72
2023-04-13T23:11:18.019Z,100313.16
2023-04-13T23:13:46.690Z,100310.78
2023-04-13T23:16:13.055Z,100300.34
2023-04-13T23:18:39.404Z,100300.66
2023-04-13T23:21:10.481Z,100297.81
2023-04-13T23:23:37.476Z,100299.44
2023-04-13T23:26:04.129Z,100290.03
2023-04-13T23:28:30.594Z,100294.09
2023-04-13T23:31:06.954Z,100290.25
2023-04-13T23:33:34.336Z,100292.28
2023-04-13T23:36:01.559Z,100291.25
2023-04-13T23:38:28.508Z,100279.69
2023-04-13T23:40:55.024Z,100282.88
2023-04-13T23:43:21.916Z,100276.06
2023-04-13T23:45:52.109Z,100275.81
2023-04-13T23:48:22.839Z,100275.28
2023-04-13T23:50:49.351Z,100277.97
2023-04-13T23:53:16.441Z,100275.09
2023-04-13T23:55:42.881Z,100288.97
2023-04-13T23:58:09.298Z,100283.75
